Anchorage/Lake Hood Seaplane Base, Alaska
Current Conditions -  °F | °C
As of 11:53 PM on Thursday 23 Oct 2014 (Local Time) from PALH Reporting Station
Clear Clear  
Wind Chill: 29°   Ceiling: Unl
Heat Index: 29°   Visibility: 10mi
Dew Point: 21°   Wind: 0mph
Humidity: 72%   Direction: NA
Pressure: 29.77"   Gusts: NA
Location:  61.18°N, 149.97°W
Report Text: PALH 240753Z 00000KT 10SM CLR M02/M06 A2977 RMK AO2 SLP082 T10171061
Loading
Personal Weather Stations






























Interactive Weather Map New forecast layout! Learn more

10-Day Weather Forecast

Advertisements
Track Severe Weather on mobile